createdAt,value
2023-02-22T00:00:43.211Z,2.33
2023-02-22T00:03:50.304Z,2.26
2023-02-22T00:06:53.996Z,2.25
2023-02-22T00:09:57.312Z,2.22
2023-02-22T00:13:00.016Z,2.13
2023-02-22T00:16:02.990Z,2.11
2023-02-22T00:19:06.248Z,2.09
2023-02-22T00:22:09.002Z,1.96
2023-02-22T00:25:11.724Z,1.95
2023-02-22T00:28:15.422Z,1.93
2023-02-22T00:31:19.974Z,1.81
2023-02-22T00:34:24.403Z,1.82
2023-02-22T00:37:27.243Z,1.76
2023-02-22T00:40:32.284Z,1.65
2023-02-22T00:43:35.529Z,1.48
2023-02-22T00:46:38.248Z,1.43
2023-02-22T00:49:40.931Z,1.41
2023-02-22T00:52:44.504Z,1.37
2023-02-22T00:55:47.175Z,1.29
2023-02-22T00:58:49.956Z,1.31
2023-02-22T01:01:53.782Z,1.33
2023-02-22T01:04:56.719Z,1.26
2023-02-22T01:08:01.140Z,1.21
2023-02-22T01:11:07.129Z,1.14
2023-02-22T01:14:10.003Z,1.07
2023-02-22T01:17:15.952Z,1.12
2023-02-22T01:20:20.911Z,1.17
2023-02-22T01:23:23.701Z,1.07
2023-02-22T01:26:26.550Z,1.16
2023-02-22T01:29:29.288Z,1.02
2023-02-22T01:32:33.883Z,1.02
2023-02-22T01:35:41.016Z,1.04
2023-02-22T01:38:45.257Z,1.01
2023-02-22T01:41:48.001Z,0.99
2023-02-22T01:45:28.443Z,0.94
2023-02-22T01:48:39.166Z,0.99
2023-02-22T01:51:45.693Z,1.05
2023-02-22T01:54:53.293Z,1.02
2023-02-22T01:57:56.226Z,1.16
2023-02-22T02:00:59.363Z,1.05
2023-02-22T02:04:05.551Z,1.16
2023-02-22T02:07:09.724Z,1.22
2023-02-22T02:10:15.657Z,1.14
2023-02-22T02:13:20.381Z,1.20
2023-02-22T02:16:35.904Z,1.12
2023-02-22T02:19:57.131Z,1.07
2023-02-22T02:23:24.890Z,1.06
2023-02-22T02:26:46.430Z,1.02
2023-02-22T02:30:17.042Z,0.98
2023-02-22T02:33:27.081Z,1.03
2023-02-22T02:36:46.640Z,1.19
2023-02-22T02:40:27.752Z,1.34
2023-02-22T02:43:48.777Z,1.38
2023-02-22T02:46:52.225Z,1.33
2023-02-22T02:50:01.006Z,1.23
2023-02-22T02:53:06.488Z,1.17
2023-02-22T02:56:09.186Z,1.10
2023-02-22T02:59:27.695Z,1.07
2023-02-22T03:02:42.189Z,1.03
2023-02-22T03:06:06.175Z,1.00
2023-02-22T03:09:38.694Z,0.99
2023-02-22T03:13:11.932Z,0.86
2023-02-22T03:16:21.341Z,0.80
2023-02-22T03:19:46.260Z,0.74
2023-02-22T03:22:58.151Z,0.68
2023-02-22T03:26:10.156Z,0.63
2023-02-22T03:29:16.285Z,0.61
2023-02-22T03:32:24.051Z,0.61
2023-02-22T03:35:31.752Z,0.54
2023-02-22T03:38:37.495Z,0.50
2023-02-22T03:41:40.997Z,0.54
2023-02-22T03:44:44.769Z,0.61
2023-02-22T03:47:56.298Z,0.50
2023-02-22T03:51:01.228Z,0.46
2023-02-22T03:54:05.181Z,0.44
2023-02-22T03:57:16.236Z,0.41
2023-02-22T04:00:23.166Z,0.47
2023-02-22T04:03:25.982Z,0.43
2023-02-22T04:06:29.626Z,0.43
2023-02-22T04:09:32.915Z,0.40
2023-02-22T04:12:37.043Z,0.43
2023-02-22T04:15:39.677Z,0.48
2023-02-22T04:18:42.608Z,0.52
2023-02-22T04:21:45.298Z,0.56
2023-02-22T04:24:49.183Z,0.59
2023-02-22T04:27:55.130Z,0.66
2023-02-22T04:30:58.527Z,0.78
2023-02-22T04:34:02.627Z,0.82
2023-02-22T04:37:05.411Z,0.83
2023-02-22T04:40:10.765Z,0.90
2023-02-22T04:43:13.536Z,1.02
2023-02-22T04:46:16.409Z,0.97
2023-02-22T04:49:19.198Z,1.03
2023-02-22T04:52:22.090Z,1.06
2023-02-22T04:55:24.908Z,1.05
2023-02-22T04:58:28.178Z,0.94
2023-02-22T05:01:35.092Z,0.96
2023-02-22T05:04:41.062Z,1.01
2023-02-22T05:07:43.874Z,0.96
2023-02-22T05:10:46.715Z,0.94
2023-02-22T05:13:49.488Z,1.02
2023-02-22T05:16:52.174Z,0.94
2023-02-22T05:19:55.015Z,0.94
2023-02-22T05:22:59.072Z,0.94
2023-02-22T05:26:01.824Z,0.95
2023-02-22T05:29:04.737Z,0.98
2023-02-22T05:32:08.033Z,1.06
2023-02-22T05:35:10.821Z,1.11
2023-02-22T05:38:15.300Z,1.23
2023-02-22T05:41:18.876Z,1.34
2023-02-22T05:44:21.929Z,1.56
2023-02-22T05:47:24.580Z,1.62
2023-02-22T05:50:27.442Z,1.60
2023-02-22T05:53:30.703Z,1.63
2023-02-22T05:56:33.716Z,1.71
2023-02-22T05:59:39.575Z,1.73
2023-02-22T06:02:42.377Z,1.83
2023-02-22T06:05:45.160Z,1.89
2023-02-22T06:08:48.037Z,1.96
2023-02-22T06:11:50.783Z,2.01
2023-02-22T06:14:53.590Z,2.08
2023-02-22T06:17:58.044Z,2.14
2023-02-22T06:21:03.563Z,2.22
2023-02-22T06:24:06.684Z,2.34
2023-02-22T06:27:09.376Z,2.44
2023-02-22T06:30:14.580Z,2.55
2023-02-22T06:33:17.612Z,2.62
2023-02-22T06:36:20.309Z,2.79
2023-02-22T06:39:24.013Z,3.05
2023-02-22T06:42:26.939Z,3.22
2023-02-22T06:45:29.732Z,3.38
2023-02-22T06:48:33.298Z,3.50
2023-02-22T06:51:37.383Z,3.62
2023-02-22T06:54:40.188Z,3.79
2023-02-22T06:57:43.658Z,3.88
2023-02-22T07:00:47.238Z,3.94
2023-02-22T07:03:50.545Z,4.03
2023-02-22T07:06:53.369Z,4.11
2023-02-22T07:09:56.062Z,4.17
2023-02-22T07:12:58.959Z,4.30
2023-02-22T07:16:01.674Z,4.41
2023-02-22T07:19:04.385Z,4.79
2023-02-22T07:22:07.185Z,5.16
2023-02-22T07:25:11.564Z,5.35
2023-02-22T07:28:14.258Z,5.55
2023-02-22T07:31:17.304Z,5.65
2023-02-22T07:34:20.206Z,5.77
2023-02-22T07:37:22.977Z,5.97
2023-02-22T07:40:27.491Z,6.05
2023-02-22T07:43:31.848Z,6.16
2023-02-22T07:46:34.605Z,6.23
2023-02-22T07:49:37.497Z,6.25
2023-02-22T07:52:40.677Z,6.27
2023-02-22T07:55:43.882Z,6.32
2023-02-22T07:58:46.624Z,6.37
2023-02-22T08:01:50.681Z,6.42
2023-02-22T08:04:53.681Z,6.48
2023-02-22T08:07:59.889Z,6.54
2023-02-22T08:11:02.943Z,6.44
2023-02-22T08:14:06.674Z,6.65
2023-02-22T08:17:09.811Z,6.72
2023-02-22T08:20:13.592Z,6.77
2023-02-22T08:23:18.234Z,6.87
2023-02-22T08:26:21.086Z,6.97
2023-02-22T08:29:24.027Z,7.03
2023-02-22T08:32:27.239Z,7.14
2023-02-22T08:35:31.953Z,7.26
2023-02-22T08:38:35.155Z,7.39
2023-02-22T08:41:37.962Z,7.51
2023-02-22T08:44:41.151Z,7.64
2023-02-22T08:47:44.823Z,7.86
2023-02-22T08:50:47.583Z,8.06
2023-02-22T08:53:50.484Z,8.30
2023-02-22T08:56:53.243Z,8.60
2023-02-22T08:59:56.687Z,8.76
2023-02-22T09:03:01.697Z,8.88
2023-02-22T09:06:05.489Z,9.10
2023-02-22T09:09:08.404Z,9.19
2023-02-22T09:12:11.922Z,9.35
2023-02-22T09:15:16.635Z,9.45
2023-02-22T09:18:21.334Z,9.64
2023-02-22T09:21:24.067Z,9.78
2023-02-22T09:24:27.486Z,10.03
2023-02-22T09:27:30.395Z,10.11
2023-02-22T09:30:35.748Z,10.36
2023-02-22T09:33:38.604Z,10.32
2023-02-22T09:36:42.298Z,10.91
2023-02-22T09:39:45.479Z,11.05
2023-02-22T09:43:04.427Z,11.30
2023-02-22T09:46:20.029Z,11.21
2023-02-22T09:49:38.312Z,11.33
2023-02-22T09:52:50.239Z,11.35
2023-02-22T09:55:53.451Z,11.77
2023-02-22T09:59:00.453Z,12.16
2023-02-22T10:02:25.042Z,13.12
2023-02-22T10:05:42.158Z,13.13
2023-02-22T10:08:46.247Z,13.31
2023-02-22T10:12:00.734Z,13.62
2023-02-22T10:15:28.723Z,13.76
2023-02-22T10:19:08.702Z,13.76
2023-02-22T10:22:40.352Z,13.75
2023-02-22T10:25:45.701Z,13.88
2023-02-22T10:29:10.042Z,14.48
2023-02-22T10:32:19.810Z,15.00
2023-02-22T10:35:30.039Z,15.03
2023-02-22T10:38:34.673Z,15.83
2023-02-22T10:41:50.383Z,14.46
2023-02-22T10:44:53.675Z,14.14
2023-02-22T10:48:18.671Z,13.90
2023-02-22T10:51:21.785Z,14.03
2023-02-22T10:55:01.010Z,14.47
2023-02-22T10:58:09.389Z,14.61
2023-02-22T11:01:36.763Z,14.60
2023-02-22T11:04:51.954Z,15.39
2023-02-22T11:08:22.827Z,15.83
2023-02-22T11:11:29.080Z,15.92
2023-02-22T11:14:32.169Z,15.82
2023-02-22T11:17:35.121Z,16.13
2023-02-22T11:20:39.901Z,16.32
2023-02-22T11:23:45.041Z,16.66
2023-02-22T11:26:50.889Z,17.55
2023-02-22T11:29:53.783Z,16.68
2023-02-22T11:33:23.934Z,16.01
2023-02-22T11:36:33.239Z,16.00
2023-02-22T11:39:38.735Z,15.33
2023-02-22T11:42:41.987Z,15.40
2023-02-22T11:46:02.194Z,15.09
2023-02-22T11:49:09.430Z,14.78
2023-02-22T11:52:31.885Z,14.02
2023-02-22T11:55:45.587Z,14.09
2023-02-22T11:59:08.318Z,14.42
2023-02-22T12:03:00.634Z,14.49
2023-02-22T12:06:12.731Z,14.57
2023-02-22T12:09:27.331Z,14.54
2023-02-22T12:13:20.925Z,14.76
2023-02-22T12:16:39.007Z,14.88
2023-02-22T12:19:43.867Z,14.84
2023-02-22T12:23:04.691Z,14.63
2023-02-22T12:26:16.806Z,14.41
2023-02-22T12:29:54.205Z,14.68
2023-02-22T12:33:06.174Z,14.82
2023-02-22T12:36:14.757Z,14.89
2023-02-22T12:39:52.886Z,14.90
2023-02-22T12:43:18.373Z,14.95
2023-02-22T12:47:00.858Z,15.03
2023-02-22T12:50:15.589Z,14.98
2023-02-22T12:53:39.069Z,14.94
2023-02-22T12:56:46.861Z,14.53
2023-02-22T12:59:52.881Z,14.48
2023-02-22T13:03:00.998Z,14.37
2023-02-22T13:06:55.742Z,14.34
2023-02-22T13:10:23.696Z,14.35
2023-02-22T13:13:43.493Z,14.42
2023-02-22T13:17:05.231Z,14.23
2023-02-22T13:20:14.740Z,14.29
2023-02-22T13:23:39.678Z,14.36
2023-02-22T13:26:54.761Z,14.37
2023-02-22T13:29:59.657Z,14.32
2023-02-22T13:33:15.745Z,13.96
2023-02-22T13:36:38.783Z,14.13
2023-02-22T13:40:31.994Z,14.22
2023-02-22T13:43:47.080Z,14.21
2023-02-22T13:47:16.628Z,14.04
2023-02-22T13:50:39.533Z,14.27
2023-02-22T13:53:56.214Z,14.29
2023-02-22T13:56:59.104Z,14.31
2023-02-22T14:00:21.137Z,14.20
2023-02-22T14:03:36.561Z,14.16
2023-02-22T14:06:41.885Z,13.80
2023-02-22T14:09:51.266Z,13.88
2023-02-22T14:12:53.976Z,13.96
2023-02-22T14:16:00.362Z,13.65
2023-02-22T14:19:18.255Z,13.43
2023-02-22T14:22:28.298Z,13.35
2023-02-22T14:25:43.038Z,13.41
2023-02-22T14:29:00.110Z,13.33
2023-02-22T14:32:08.608Z,13.28
2023-02-22T14:35:28.630Z,13.40
2023-02-22T14:38:36.725Z,13.33
2023-02-22T14:41:43.133Z,13.33
2023-02-22T14:44:54.346Z,13.38
2023-02-22T14:48:25.183Z,13.27
2023-02-22T14:51:43.092Z,13.33
2023-02-22T14:54:54.227Z,13.30
2023-02-22T14:58:06.736Z,13.21
2023-02-22T15:01:20.315Z,13.13
2023-02-22T15:04:25.845Z,13.11
2023-02-22T15:07:31.850Z,13.12
2023-02-22T15:10:43.739Z,12.97
2023-02-22T15:13:51.574Z,12.96
2023-02-22T15:16:57.257Z,12.82
2023-02-22T15:20:00.572Z,12.73
2023-02-22T15:23:04.994Z,12.67
2023-02-22T15:26:09.329Z,12.53
2023-02-22T15:29:23.448Z,12.46
2023-02-22T15:32:36.533Z,12.43
2023-02-22T15:35:40.787Z,12.39
2023-02-22T15:38:49.470Z,12.43
2023-02-22T15:42:19.616Z,12.39
2023-02-22T15:45:27.370Z,12.37
2023-02-22T15:48:32.029Z,12.35
2023-02-22T15:51:36.255Z,12.17
2023-02-22T15:54:45.210Z,12.11
2023-02-22T15:57:48.446Z,12.09
2023-02-22T16:01:01.805Z,12.05
2023-02-22T16:04:04.982Z,11.98
2023-02-22T16:07:21.481Z,11.93
2023-02-22T16:10:33.100Z,11.83
2023-02-22T16:13:36.602Z,11.80
2023-02-22T16:16:43.554Z,11.68
2023-02-22T16:19:46.971Z,11.65
2023-02-22T16:22:50.241Z,11.59
2023-02-22T16:26:16.952Z,11.51
2023-02-22T16:29:27.009Z,11.44
2023-02-22T16:32:30.745Z,11.38
2023-02-22T16:35:35.777Z,11.30
2023-02-22T16:38:39.730Z,11.23
2023-02-22T16:41:42.973Z,11.16
2023-02-22T16:44:46.145Z,11.11
2023-02-22T16:47:53.864Z,11.08
2023-02-22T16:51:01.924Z,11.02
2023-02-22T16:54:04.805Z,10.98
2023-02-22T16:57:07.688Z,10.95
2023-02-22T17:00:22.009Z,10.92
2023-02-22T17:03:26.752Z,10.89
2023-02-22T17:06:29.611Z,10.81
2023-02-22T17:09:33.197Z,10.73
2023-02-22T17:12:36.054Z,10.68
2023-02-22T17:15:39.003Z,10.65
2023-02-22T17:18:42.126Z,10.60
2023-02-22T17:21:45.218Z,10.50
2023-02-22T17:24:48.286Z,10.43
2023-02-22T17:27:51.331Z,10.33
2023-02-22T17:30:55.814Z,10.27
2023-02-22T17:34:06.724Z,10.21
2023-02-22T17:37:11.125Z,10.06
2023-02-22T17:40:17.363Z,9.93
2023-02-22T17:43:20.497Z,9.76
2023-02-22T17:46:25.388Z,9.55
2023-02-22T17:49:28.222Z,9.56
2023-02-22T17:52:30.975Z,9.50
2023-02-22T17:55:34.646Z,9.32
2023-02-22T17:58:37.832Z,9.17
2023-02-22T18:01:44.124Z,9.10
2023-02-22T18:04:47.169Z,8.94
2023-02-22T18:07:50.117Z,8.76
2023-02-22T18:11:02.200Z,8.65
2023-02-22T18:14:10.174Z,8.48
2023-02-22T18:17:12.958Z,8.29
2023-02-22T18:20:20.565Z,8.15
2023-02-22T18:23:28.015Z,8.02
2023-02-22T18:26:31.796Z,7.81
2023-02-22T18:29:34.968Z,7.71
2023-02-22T18:32:38.808Z,7.55
2023-02-22T18:35:47.799Z,7.38
2023-02-22T18:38:55.288Z,7.30
2023-02-22T18:41:58.556Z,7.28
2023-02-22T18:49:02.329Z,7.03
2023-02-22T18:52:12.256Z,6.90
2023-02-22T18:55:21.279Z,6.73
2023-02-22T18:58:24.332Z,6.63
2023-02-22T19:01:28.185Z,6.63
2023-02-22T19:04:31.324Z,6.52
2023-02-22T19:07:34.552Z,6.43
2023-02-22T19:10:38.934Z,6.36
2023-02-22T19:13:41.788Z,6.33
2023-02-22T19:16:48.361Z,6.19
2023-02-22T19:19:52.845Z,5.95
2023-02-22T19:23:00.666Z,5.94
2023-02-22T19:26:05.042Z,5.91
2023-02-22T19:29:09.787Z,5.83
2023-02-22T19:32:14.090Z,5.74
2023-02-22T19:35:26.437Z,5.70
2023-02-22T19:38:29.692Z,5.62
2023-02-22T19:41:37.495Z,5.58
2023-02-22T19:44:41.743Z,5.56
2023-02-22T19:47:46.643Z,5.43
2023-02-22T19:50:50.163Z,5.32
2023-02-22T19:53:54.567Z,5.20
2023-02-22T19:56:59.017Z,5.26
2023-02-22T20:00:11.004Z,5.26
2023-02-22T20:03:16.027Z,5.26
2023-02-22T20:06:19.109Z,5.26
2023-02-22T20:09:24.957Z,5.10
2023-02-22T20:12:27.991Z,4.92
2023-02-22T20:15:34.805Z,5.00
2023-02-22T20:18:38.020Z,4.88
2023-02-22T20:21:41.294Z,4.84
2023-02-22T20:24:44.496Z,4.78
2023-02-22T20:27:48.133Z,4.65
2023-02-22T20:30:51.955Z,4.64
2023-02-22T20:33:57.453Z,4.60
2023-02-22T20:37:01.588Z,4.47
2023-02-22T20:40:05.389Z,4.51
2023-02-22T20:43:09.453Z,4.42
2023-02-22T20:46:12.772Z,4.26
2023-02-22T20:49:18.310Z,4.28
2023-02-22T20:52:21.503Z,4.19
2023-02-22T20:55:25.115Z,4.19
2023-02-22T20:58:29.375Z,4.11
2023-02-22T21:01:32.894Z,4.11
2023-02-22T21:04:35.986Z,4.01
2023-02-22T21:07:39.639Z,3.91
2023-02-22T21:10:47.405Z,3.77
2023-02-22T21:13:51.210Z,3.74
2023-02-22T21:16:54.755Z,3.75
2023-02-22T21:19:58.738Z,3.70
2023-02-22T21:23:03.234Z,3.63
2023-02-22T21:26:07.390Z,3.55
2023-02-22T21:29:10.473Z,3.53
2023-02-22T21:32:14.051Z,3.47
2023-02-22T21:35:16.953Z,3.46
2023-02-22T21:38:21.066Z,3.43
2023-02-22T21:41:27.983Z,3.42
2023-02-22T21:44:31.154Z,3.37
2023-02-22T21:47:35.976Z,3.26
2023-02-22T21:50:39.229Z,3.19
2023-02-22T21:53:46.771Z,3.09
2023-02-22T21:56:50.013Z,3.09
2023-02-22T21:59:53.386Z,3.04
2023-02-22T22:03:11.938Z,3.05
2023-02-22T22:06:15.254Z,3.06
2023-02-22T22:09:19.282Z,2.98
2023-02-22T22:12:26.024Z,2.95
2023-02-22T22:15:37.036Z,2.87
2023-02-22T22:18:41.186Z,2.87
2023-02-22T22:21:46.795Z,2.84
2023-02-22T22:24:50.215Z,2.75
2023-02-22T22:27:52.979Z,2.79
2023-02-22T22:30:55.956Z,2.80
2023-02-22T22:33:58.870Z,2.86
2023-02-22T22:37:01.620Z,2.81
2023-02-22T22:40:05.761Z,2.86
2023-02-22T22:43:08.901Z,2.86
2023-02-22T22:46:13.409Z,2.81
2023-02-22T22:49:16.579Z,2.68
2023-02-22T22:52:19.363Z,2.65
2023-02-22T22:55:24.540Z,2.65
2023-02-22T22:58:27.306Z,2.62
2023-02-22T23:01:34.386Z,2.56
2023-02-22T23:04:38.267Z,2.61
2023-02-22T23:07:41.059Z,2.56
2023-02-22T23:10:43.942Z,2.40
2023-02-22T23:13:47.017Z,2.33
2023-02-22T23:16:51.364Z,2.40
2023-02-22T23:19:54.204Z,2.40
2023-02-22T23:22:58.106Z,2.44
2023-02-22T23:26:11.741Z,2.39
2023-02-22T23:29:15.042Z,2.36
2023-02-22T23:32:18.112Z,2.36
2023-02-22T23:35:21.011Z,2.36
2023-02-22T23:38:23.730Z,2.35
2023-02-22T23:41:28.863Z,2.35
2023-02-22T23:44:31.654Z,2.39
2023-02-22T23:47:34.294Z,2.27
2023-02-22T23:50:36.986Z,2.37
2023-02-22T23:53:46.097Z,2.40
2023-02-22T23:56:58.651Z,2.30
